RJTE(METAR)
07/27 17:00
METAR RJTE 270800Z 24004KT 170V280 9999 FEW035 SCT230 27/22 Q0997
RMK 2CU035 A2945=
戻る
トップページへ戻る
IMOC Co,.Ltd.